Time;durP1;ratioP1;P1;durP2;ratioP2;P2;SDS_P1;SDS_P2;PMS_P1;PMS_P2;Temp;Humidity;BMP_temperature;BMP_pressure;BME280_temperature;BME280_humidity;BME280_pressure;Samples;Min_cycle;Max_cycle;Signal;HPM_P1;HPM_P2
2024/01/03 00:00:29;;;;;;;13.48;3.35;;;;;;;12.12;83.36;97978.03;5092102;28;20031;-47
2024/01/03 00:02:56;;;;;;;9.43;3.55;;;;;;;12.14;82.15;97978.59;5092239;28;20067;-47
2024/01/03 00:05:25;;;;;;;5.88;2.40;;;;;;;12.15;83.03;97980.22;5092125;28;20865;-47
2024/01/03 00:07:51;;;;;;;8.93;4.25;;;;;;;12.09;82.42;97980.28;5092055;28;20027;-47
2024/01/03 00:10:42;;;;;;;7.43;2.47;;;;;;;12.08;82.83;97981.34;5092285;28;20021;-47
2024/01/03 00:13:28;;;;;;;9.18;2.88;;;;;;;12.15;85.35;97980.22;5090815;28;20028;-47
2024/01/03 00:16:09;;;;;;;10.25;3.05;;;;;;;12.18;84.81;97981.56;5092012;28;20028;-47
2024/01/03 00:18:37;;;;;;;6.55;2.88;;;;;;;12.16;82.56;97979.16;5090729;28;20039;-47
2024/01/03 00:21:03;;;;;;;8.50;2.75;;;;;;;12.21;83.41;97964.53;5090633;28;20024;-47
2024/01/03 00:23:46;;;;;;;9.13;2.75;;;;;;;12.25;83.07;97992.78;5091960;28;20027;-47
2024/01/03 00:26:13;;;;;;;8.13;2.67;;;;;;;12.19;81.34;97970.00;5092163;28;20404;-47
2024/01/03 00:28:39;;;;;;;3.95;2.13;;;;;;;12.17;79.21;97979.97;5090468;28;20090;-47
2024/01/03 00:31:06;;;;;;;7.85;3.75;;;;;;;12.07;81.62;97992.88;5091674;28;20089;-47
2024/01/03 00:33:41;;;;;;;10.57;2.40;;;;;;;11.98;81.73;97974.00;5091887;28;20069;-47
2024/01/03 00:36:09;;;;;;;;;;;;;;;11.88;79.90;97985.03;5091053;28;20093;-47
2024/01/03 00:38:41;;;;;;;17.73;9.32;;;;;;;11.80;83.74;97988.00;5091798;28;19955;-47
2024/01/03 00:41:09;;;;;;;7.78;3.90;;;;;;;11.73;83.96;97984.66;5091966;28;20024;-47
2024/01/03 00:43:39;;;;;;;9.63;3.72;;;;;;;11.72;84.55;97989.13;5090424;28;20397;-47
2024/01/03 00:46:05;;;;;;;6.65;2.65;;;;;;;11.68;82.48;97977.44;5090462;28;20028;-47
2024/01/03 00:48:32;;;;;;;7.25;2.08;;;;;;;11.68;81.04;97976.66;5090326;28;20028;-47
2024/01/03 00:50:59;;;;;;;9.75;3.20;;;;;;;11.66;84.31;97989.22;5091666;28;20512;-47
2024/01/03 00:53:26;;;;;;;9.02;4.43;;;;;;;11.64;83.17;97971.03;5090315;28;20028;-46
2024/01/03 00:55:52;;;;;;;14.43;5.68;;;;;;;11.66;83.13;97965.56;5090299;28;20077;-47
2024/01/03 00:58:18;;;;;;;18.60;7.32;;;;;;;11.60;83.20;97975.16;5090267;28;20028;-47
2024/01/03 01:00:45;;;;;;;17.92;6.90;;;;;;;11.62;84.92;97975.72;5093960;28;20032;-47
2024/01/03 01:03:11;;;;;;;10.23;6.13;;;;;;;11.63;83.81;97977.34;5077417;28;20042;-47
2024/01/03 01:05:37;;;;;;;6.70;4.28;;;;;;;11.65;87.81;97984.97;5094172;28;20024;-47
2024/01/03 01:08:03;;;;;;;13.45;7.10;;;;;;;11.70;86.70;97993.78;5077298;28;20024;-47
2024/01/03 01:10:29;;;;;;;13.18;4.18;;;;;;;11.76;87.72;97998.16;5094144;28;20028;-47
2024/01/03 01:12:56;;;;;;;8.80;4.07;;;;;;;11.74;85.56;97987.06;5094150;28;20418;-47
2024/01/03 01:15:22;;;;;;;11.50;5.35;;;;;;;11.76;84.05;97989.47;5095397;28;20024;-47
2024/01/03 01:17:47;;;;;;;10.18;2.30;;;;;;;11.94;85.74;97996.53;5094069;28;20093;-47
2024/01/03 01:20:13;;;;;;;9.25;2.40;;;;;;;11.96;83.69;97997.09;5095157;28;20493;-47
2024/01/03 01:22:39;;;;;;;8.68;2.88;;;;;;;11.98;84.17;97992.41;5095273;28;20028;-47
2024/01/03 01:25:05;;;;;;;5.88;2.63;;;;;;;12.05;86.64;97994.94;5095022;28;20070;-47
2024/01/03 01:27:31;;;;;;;6.43;2.92;;;;;;;12.19;85.98;98001.56;5093850;28;20035;-47
2024/01/03 01:29:57;;;;;;;4.57;2.88;;;;;;;12.27;85.67;97995.19;5094810;28;20042;-47
2024/01/03 01:32:22;;;;;;;8.75;2.33;;;;;;;12.37;85.44;98003.31;5093685;28;20020;-47
2024/01/03 01:34:48;;;;;;;10.77;3.38;;;;;;;12.40;83.42;97994.97;5093737;28;20054;-47
2024/01/03 01:37:14;;;;;;;7.72;3.38;;;;;;;12.39;84.45;98004.69;5094893;28;20077;-47
2024/01/03 01:39:40;;;;;;;7.80;3.97;;;;;;;12.43;85.29;98001.59;5094910;28;20035;-47
2024/01/03 01:42:06;;;;;;;7.22;3.08;;;;;;;12.48;84.05;97994.63;5094807;28;20077;-47
2024/01/03 01:44:32;;;;;;;10.65;3.42;;;;;;;12.56;82.40;97996.91;5094871;28;20032;-47
2024/01/03 01:46:58;;;;;;;7.07;2.53;;;;;;;12.61;81.69;97988.31;5094764;28;20020;-47
2024/01/03 01:49:26;;;;;;;7.10;2.30;;;;;;;12.62;80.82;97976.75;5094723;28;20016;-47
2024/01/03 01:51:53;;;;;;;6.28;1.73;;;;;;;12.53;80.61;97989.44;5076508;28;20051;-47
2024/01/03 01:54:20;;;;;;;7.80;2.20;;;;;;;12.46;83.16;97991.41;5094630;28;20170;-47
2024/01/03 01:56:47;;;;;;;9.55;3.28;;;;;;;12.49;84.48;97983.06;5076598;28;20102;-47
2024/01/03 01:59:14;;;;;;;6.55;1.92;;;;;;;12.59;84.38;97993.78;5094510;28;20028;-47
2024/01/03 02:01:41;;;;;;;8.68;2.83;;;;;;;12.58;83.32;97992.22;5094499;28;20020;-47
2024/01/03 02:04:08;;;;;;;5.45;2.40;;;;;;;12.56;81.78;98004.00;5094763;28;20028;-47
2024/01/03 02:06:35;;;;;;;7.43;3.03;;;;;;;12.56;84.11;97990.84;5093058;28;20019;-47
2024/01/03 02:09:01;;;;;;;6.43;3.42;;;;;;;12.57;81.05;97990.59;5093246;28;20020;-47
2024/01/03 02:11:26;;;;;;;10.55;3.35;;;;;;;12.63;83.80;98002.03;5093453;28;20599;-47
2024/01/03 02:13:52;;;;;;;6.95;2.38;;;;;;;12.63;81.26;97983.63;5094241;28;20478;-47
2024/01/03 02:16:18;;;;;;;4.85;1.85;;;;;;;12.54;81.11;97980.53;5092885;28;20016;-47
2024/01/03 02:18:44;;;;;;;6.22;2.42;;;;;;;12.63;82.17;97969.66;5094180;28;20058;-47
2024/01/03 02:21:15;;;;;;;7.97;3.85;;;;;;;12.67;82.65;97970.78;5092713;28;20039;-47
2024/01/03 02:23:41;;;;;;;5.00;2.35;;;;;;;12.74;83.49;97976.75;5092860;28;20382;-47
2024/01/03 02:26:08;;;;;;;7.05;2.22;;;;;;;12.75;82.81;97968.59;5092654;28;20563;-47
2024/01/03 02:28:35;;;;;;;9.15;2.70;;;;;;;12.71;81.15;97975.34;5093902;28;20012;-47
2024/01/03 02:31:01;;;;;;;5.22;2.40;;;;;;;12.70;80.75;97978.25;5092533;28;20465;-47
2024/01/03 02:33:26;;;;;;;4.20;1.52;;;;;;;12.67;81.50;97973.44;5093907;28;20482;-47
2024/01/03 02:35:52;;;;;;;6.10;2.25;;;;;;;12.61;80.13;97975.16;5092523;28;20081;-47
2024/01/03 02:38:19;;;;;;;6.18;3.13;;;;;;;12.57;82.51;97972.16;5092416;28;20032;-47
2024/01/03 02:40:44;;;;;;;4.68;1.58;;;;;;;12.57;79.52;97980.06;5093625;28;20020;-47
2024/01/03 02:43:10;;;;;;;3.60;1.55;;;;;;;12.60;78.98;97992.00;5093666;28;20091;-47
2024/01/03 02:45:37;;;;;;;6.18;1.80;;;;;;;12.52;78.96;97982.59;5092605;28;20035;-47
2024/01/03 02:48:03;;;;;;;5.70;1.83;;;;;;;12.58;80.16;97973.78;5093421;28;20024;-47
2024/01/03 02:50:28;;;;;;;7.88;2.40;;;;;;;12.55;79.09;97976.88;5093508;28;20020;-47
2024/01/03 02:52:54;;;;;;;3.10;1.50;;;;;;;12.58;80.12;97986.16;5092150;28;20383;-47
2024/01/03 02:55:21;;;;;;;4.63;2.05;;;;;;;12.63;78.87;97974.91;5092092;28;20032;-47
2024/01/03 02:57:47;;;;;;;4.80;1.77;;;;;;;12.72;78.15;97971.72;5093388;28;20379;-47
2024/01/03 03:00:13;;;;;;;5.20;1.52;;;;;;;12.73;77.57;97972.50;5091996;28;20028;-47
2024/01/03 03:02:39;;;;;;;3.60;1.60;;;;;;;12.74;76.50;97968.84;5093268;28;20020;-47
2024/01/03 03:05:05;;;;;;;5.90;1.50;;;;;;;12.74;78.49;97984.66;5093206;28;20024;-47
2024/01/03 03:07:31;;;;;;;3.00;1.30;;;;;;;12.83;77.80;97988.50;5091810;28;20038;-47
2024/01/03 03:09:57;;;;;;;4.15;1.60;;;;;;;12.87;77.69;97970.41;5091855;28;20024;-47
2024/01/03 03:12:23;;;;;;;4.97;1.85;;;;;;;12.86;76.22;97972.25;5091803;28;20058;-47
2024/01/03 03:14:49;;;;;;;2.60;1.40;;;;;;;12.87;77.86;97981.75;5091747;28;20494;-47
2024/01/03 03:17:15;;;;;;;5.38;1.92;;;;;;;12.89;76.18;97984.16;5091780;28;20031;-47
2024/01/03 03:19:42;;;;;;;7.60;1.63;;;;;;;12.86;77.61;97993.31;5092879;28;20383;-47
2024/01/03 03:22:08;;;;;;;4.30;1.52;;;;;;;12.84;77.38;97989.31;5091702;28;20030;-47
2024/01/03 03:24:33;;;;;;;4.05;1.70;;;;;;;12.77;76.54;97986.81;5092872;28;20032;-47
2024/01/03 03:26:59;;;;;;;4.28;1.85;;;;;;;12.81;76.69;97990.56;5091526;28;20032;-47
2024/01/03 03:29:25;;;;;;;2.60;1.60;;;;;;;12.77;75.85;97992.06;5091128;28;20528;-47
2024/01/03 03:31:50;;;;;;;5.68;1.73;;;;;;;12.70;76.92;97973.78;5091431;28;20494;-47
2024/01/03 03:34:17;;;;;;;3.17;1.50;;;;;;;12.73;76.77;97968.03;5092728;28;20396;-47
2024/01/03 03:36:44;;;;;;;3.78;1.50;;;;;;;12.76;76.44;97972.84;5092678;28;20031;-47
2024/01/03 03:39:09;;;;;;;8.82;2.20;;;;;;;12.72;76.75;97976.19;5092921;28;20024;-47
2024/01/03 03:41:36;;;;;;;6.70;1.80;;;;;;;12.68;75.69;97980.31;5091332;28;20069;-47
2024/01/03 03:44:02;;;;;;;5.00;1.70;;;;;;;12.67;75.32;97981.31;5091208;28;20032;-47
2024/01/03 03:46:27;;;;;;;3.50;1.40;;;;;;;12.62;75.34;97978.59;5092514;28;20505;-47
2024/01/03 03:48:53;;;;;;;5.28;1.85;;;;;;;12.62;75.27;97982.03;5092308;28;20012;-47
2024/01/03 03:51:19;;;;;;;3.83;1.70;;;;;;;12.56;76.43;97993.47;5092399;28;20032;-47
2024/01/03 03:53:45;;;;;;;3.92;1.50;;;;;;;12.54;76.84;97983.19;5092614;28;20425;-47
2024/01/03 03:56:21;;;;;;;3.67;1.50;;;;;;;12.45;76.68;97981.13;5092283;28;20024;-47
2024/01/03 03:58:47;;;;;;;5.22;1.90;;;;;;;12.40;78.00;97981.81;5091028;28;20028;-47
2024/01/03 04:01:13;;;;;;;5.45;1.63;;;;;;;12.42;76.33;97963.97;5092243;28;20153;-47
2024/01/03 04:03:39;;;;;;;3.38;1.33;;;;;;;12.36;76.79;97975.41;5090896;28;20024;-47
2024/01/03 04:06:04;;;;;;;4.07;1.50;;;;;;;12.38;76.95;97974.13;5092179;28;20029;-47
2024/01/03 04:08:30;;;;;;;4.00;1.20;;;;;;;12.32;75.60;97998.75;5092019;28;20502;-47
2024/01/03 04:10:56;;;;;;;5.18;1.35;;;;;;;12.30;76.37;97976.31;5092143;28;20035;-47
2024/01/03 04:13:21;;;;;;;6.60;1.38;;;;;;;12.26;74.15;97978.59;5092049;28;20046;-47
2024/01/03 04:15:48;;;;;;;4.05;1.27;;;;;;;12.18;74.53;97965.78;5091987;28;20031;-47
2024/01/03 04:18:16;;;;;;;5.32;1.50;;;;;;;12.16;74.17;97989.69;5092024;28;20452;-47
2024/01/03 04:20:42;;;;;;;5.57;1.55;;;;;;;12.12;74.96;97978.03;5090662;28;20032;-47
2024/01/03 04:23:08;;;;;;;6.97;1.30;;;;;;;12.10;75.22;97984.53;5091958;28;20032;-47
2024/01/03 04:25:34;;;;;;;4.50;1.55;;;;;;;12.07;75.67;97983.16;5090566;28;20114;-47
2024/01/03 04:28:03;;;;;;;3.97;1.33;;;;;;;12.09;77.05;97988.19;5092116;28;20119;-47
2024/01/03 04:30:29;;;;;;;5.30;1.45;;;;;;;12.09;75.74;97982.94;5090252;28;20512;-47
2024/01/03 04:32:54;;;;;;;6.15;1.55;;;;;;;12.03;74.89;97979.38;5091842;28;20012;-47
2024/01/03 04:35:20;;;;;;;4.53;1.65;;;;;;;12.08;76.87;97997.91;5096361;28;20059;-47
2024/01/03 04:37:46;;;;;;;6.43;2.25;;;;;;;12.15;76.18;97992.53;5097277;28;20020;-47
2024/01/03 04:40:12;;;;;;;4.15;1.55;;;;;;;12.15;75.95;97990.72;5098473;28;20027;-47
2024/01/03 04:42:38;;;;;;;2.80;0.93;;;;;;;12.03;75.42;97992.53;5097388;28;20103;-47
2024/01/03 04:45:04;;;;;;;7.53;1.30;;;;;;;11.99;78.02;97991.38;5098492;28;20485;-47
2024/01/03 04:47:30;;;;;;;6.88;1.65;;;;;;;12.09;76.25;97989.00;5097119;28;20062;-47
2024/01/03 04:49:56;;;;;;;3.47;1.42;;;;;;;12.11;75.93;97980.88;5098349;28;20378;-47
2024/01/03 04:52:22;;;;;;;4.05;2.25;;;;;;;12.11;77.36;97973.81;5097111;28;20107;-47
2024/01/03 04:54:47;;;;;;;6.88;1.45;;;;;;;12.16;76.89;97967.84;5098394;28;20023;-47
2024/01/03 04:57:16;;;;;;;7.70;2.00;;;;;;;12.21;76.59;97981.09;5097034;28;20064;-47
2024/01/03 04:59:42;;;;;;;5.00;2.30;;;;;;;12.23;76.47;97992.19;5097007;28;20028;-47
2024/01/03 05:02:08;;;;;;;3.92;1.42;;;;;;;12.13;76.30;97984.91;5096936;28;20073;-47
2024/01/03 05:04:34;;;;;;;3.75;1.92;;;;;;;12.15;76.40;97997.78;5096990;28;20409;-47
2024/01/03 05:07:02;;;;;;;4.32;1.40;;;;;;;12.24;77.01;97990.38;5098330;28;20095;-47
2024/01/03 05:09:29;;;;;;;3.25;1.40;;;;;;;12.40;77.49;97984.44;5096915;28;20020;-47
2024/01/03 05:11:55;;;;;;;3.67;1.67;;;;;;;12.40;75.34;97987.06;5096937;28;20438;-47
2024/01/03 05:14:21;;;;;;;5.97;2.13;;;;;;;12.37;75.09;97982.25;5096903;28;20285;-47
2024/01/03 05:16:50;;;;;;;2.83;1.55;;;;;;;12.37;75.65;97983.06;5096887;28;20425;-47
2024/01/03 05:19:15;;;;;;;2.50;1.25;;;;;;;12.48;74.41;97976.19;5098177;28;20046;-47
2024/01/03 05:21:41;;;;;;;3.53;1.38;;;;;;;12.55;74.76;97982.13;5098134;28;20498;-47
2024/01/03 05:24:07;;;;;;;5.03;1.42;;;;;;;12.58;75.46;97986.94;5098133;28;20091;-47
2024/01/03 05:26:32;;;;;;;4.97;1.92;;;;;;;12.58;75.66;97986.94;5098168;28;20055;-47
2024/01/03 05:28:58;;;;;;;3.63;1.33;;;;;;;12.63;74.62;97986.25;5098059;28;20020;-48
2024/01/03 05:31:24;;;;;;;3.35;1.15;;;;;;;12.74;77.07;97987.28;5096403;28;20454;-47
2024/01/03 05:33:50;;;;;;;3.03;1.20;;;;;;;12.82;75.03;97992.19;5098014;28;20028;-47
2024/01/03 05:36:15;;;;;;;3.08;1.40;;;;;;;12.90;76.59;97996.31;5096714;28;20023;-47
2024/01/03 05:38:41;;;;;;;3.03;1.20;;;;;;;13.07;74.86;97993.72;5098011;28;20028;-47
2024/01/03 05:41:07;;;;;;;5.63;1.55;;;;;;;13.14;75.99;97997.84;5096641;28;20016;-47
2024/01/03 05:43:33;;;;;;;4.15;1.38;;;;;;;13.16;73.75;97989.72;5096646;28;20023;-47
2024/01/03 05:46:01;;;;;;;5.03;1.42;;;;;;;13.16;72.07;97979.97;5094947;28;20016;-47
2024/01/03 05:48:27;;;;;;;4.78;2.33;;;;;;;13.14;73.14;97995.22;5094974;28;20027;-47
2024/01/03 05:50:53;;;;;;;6.88;2.05;;;;;;;13.05;73.45;97990.53;5094717;28;20020;-47
2024/01/03 05:53:18;;;;;;;4.30;1.90;;;;;;;12.99;73.41;97995.69;5094699;28;20417;-47
2024/01/03 05:55:44;;;;;;;2.42;1.40;;;;;;;13.02;73.18;97998.88;5093326;28;20050;-47
2024/01/03 05:58:10;;;;;;;2.92;1.33;;;;;;;12.91;72.86;98003.94;5093240;28;20035;-47
2024/01/03 06:00:36;;;;;;;4.00;1.35;;;;;;;12.90;72.63;98018.16;5093211;28;20163;-47
2024/01/03 06:03:02;;;;;;;6.10;1.70;;;;;;;12.88;73.61;98017.59;5094484;28;20129;-47
2024/01/03 06:05:28;;;;;;;2.45;1.27;;;;;;;12.84;72.39;98019.09;5093092;28;20060;-47
2024/01/03 06:07:54;;;;;;;6.25;3.08;;;;;;;12.81;73.14;98022.16;5094354;28;20165;-47
2024/01/03 06:10:19;;;;;;;13.20;3.88;;;;;;;12.85;72.97;98027.78;5092986;28;20024;-47
2024/01/03 06:12:45;;;;;;;8.00;2.85;;;;;;;12.81;71.64;98011.63;5094208;28;20020;-47
2024/01/03 06:15:11;;;;;;;4.32;1.88;;;;;;;12.82;73.71;98021.16;5092926;28;20016;-47
2024/01/03 06:17:36;;;;;;;3.42;1.52;;;;;;;12.78;73.18;98015.53;5092875;28;20375;-47
2024/01/03 06:20:03;;;;;;;4.55;1.55;;;;;;;12.84;74.00;98015.63;5094129;28;20020;-47
2024/01/03 06:22:31;;;;;;;5.07;1.77;;;;;;;12.86;73.16;98024.09;5094082;28;20025;-47
2024/01/03 06:24:57;;;;;;;4.28;1.13;;;;;;;12.90;73.87;98028.69;5094134;28;20016;-47
2024/01/03 06:27:23;;;;;;;1.83;1.05;;;;;;;12.94;73.60;98035.09;5093968;28;20390;-47
2024/01/03 06:29:48;;;;;;;3.97;1.40;;;;;;;12.95;71.47;98015.63;5093633;28;20051;-48
2024/01/03 06:32:14;;;;;;;5.13;1.30;;;;;;;12.99;71.88;98027.28;5092585;28;20020;-47
2024/01/03 06:34:40;;;;;;;3.55;1.23;;;;;;;13.12;71.95;98014.88;5092573;28;20031;-48
2024/01/03 06:37:06;;;;;;;1.63;1.20;;;;;;;13.16;73.25;98008.94;5093834;28;20083;-47
2024/01/03 06:39:32;;;;;;;8.25;5.22;;;;;;;13.28;71.50;98002.81;5093860;28;20069;-48
2024/01/03 06:41:57;;;;;;;2.10;1.20;;;;;;;13.38;71.76;98005.69;5093730;28;20094;-47
2024/01/03 06:44:23;;;;;;;7.20;1.55;;;;;;;13.51;72.36;97994.06;5093663;28;20103;-47
2024/01/03 06:46:51;;;;;;;4.80;1.40;;;;;;;13.64;72.06;98003.50;5093584;28;20486;-47
2024/01/03 06:49:17;;;;;;;6.18;1.88;;;;;;;13.62;70.58;97995.84;5093691;28;20047;-47
2024/01/03 06:51:44;;;;;;;5.00;1.20;;;;;;;13.57;68.44;97987.84;5093538;28;20028;-47
2024/01/03 06:54:10;;;;;;;4.57;1.90;;;;;;;13.51;67.23;97999.34;5092183;28;20032;-47
2024/01/03 06:56:35;;;;;;;2.30;1.25;;;;;;;13.53;68.89;97994.63;5091744;28;20054;-47
2024/01/03 06:59:01;;;;;;;3.45;1.15;;;;;;;13.50;67.44;98000.38;5093411;28;20031;-47
2024/01/03 07:01:27;;;;;;;4.60;2.10;;;;;;;13.47;67.56;98008.75;5093356;28;20020;-47
2024/01/03 07:03:53;;;;;;;2.00;0.90;;;;;;;13.53;69.50;98000.69;5092086;28;20024;-47
2024/01/03 07:06:19;;;;;;;3.45;1.33;;;;;;;13.70;69.46;98005.19;5093238;28;20384;-47
2024/01/03 07:08:46;;;;;;;5.78;1.55;;;;;;;13.78;70.58;98008.28;5092144;28;20390;-47
2024/01/03 07:11:11;;;;;;;5.32;1.80;;;;;;;13.93;70.33;98002.44;5093094;28;20060;-47
2024/01/03 07:13:37;;;;;;;6.32;1.85;;;;;;;14.13;69.28;98011.75;5093117;28;20062;-47
2024/01/03 07:16:03;;;;;;;3.85;1.42;;;;;;;14.18;66.34;98004.72;5093045;28;20477;-47
2024/01/03 07:18:29;;;;;;;2.47;1.40;;;;;;;14.28;67.83;98009.31;5093055;28;20024;-47
2024/01/03 07:20:55;;;;;;;4.35;1.75;;;;;;;14.36;69.28;98006.28;5091672;28;20024;-47
2024/01/03 07:23:20;;;;;;;4.10;1.33;;;;;;;14.41;68.42;98010.84;5091616;28;20123;-47
2024/01/03 07:25:46;;;;;;;3.50;2.03;;;;;;;14.53;68.25;98005.47;5092892;28;20063;-47
2024/01/03 07:28:13;;;;;;;4.90;2.45;;;;;;;14.61;67.17;98001.63;5092791;28;20024;-47
2024/01/03 07:30:39;;;;;;;2.55;1.42;;;;;;;14.73;67.11;98000.50;5092584;28;20040;-47
2024/01/03 07:33:04;;;;;;;4.05;2.85;;;;;;;14.82;64.56;97994.78;5091420;28;20073;-47
2024/01/03 07:35:30;;;;;;;2.80;1.70;;;;;;;14.83;63.96;98002.47;5091739;28;20028;-47
2024/01/03 07:37:56;;;;;;;2.53;1.52;;;;;;;14.85;64.83;97994.28;5092638;28;20027;-48
2024/01/03 07:40:21;;;;;;;4.50;2.05;;;;;;;14.78;61.38;98000.56;5092596;28;20529;-47
2024/01/03 07:42:47;;;;;;;5.60;1.52;;;;;;;14.68;65.69;98005.69;5091270;28;20024;-47
2024/01/03 07:45:13;;;;;;;4.10;1.52;;;;;;;14.74;63.85;98011.84;5092483;28;20057;-47
2024/01/03 07:47:39;;;;;;;8.70;1.67;;;;;;;14.78;65.99;98003.19;5092439;28;20016;-48
2024/01/03 07:50:05;;;;;;;6.50;2.88;;;;;;;14.86;64.38;98003.81;5092437;28;20020;-47
2024/01/03 07:52:31;;;;;;;2.67;2.03;;;;;;;14.81;65.06;98007.22;5092674;28;20027;-47
2024/01/03 07:54:56;;;;;;;2.80;1.40;;;;;;;14.81;65.00;98012.50;5092343;28;20513;-47
2024/01/03 07:57:25;;;;;;;2.70;1.15;;;;;;;14.90;64.90;98011.00;5092345;28;20394;-47
2024/01/03 07:59:51;;;;;;;5.28;3.70;;;;;;;14.87;63.58;98016.78;5090985;28;20031;-48
2024/01/03 08:02:17;;;;;;;2.53;1.83;;;;;;;14.85;63.70;98020.72;5090888;28;20045;-47
2024/01/03 08:04:43;;;;;;;3.88;1.85;;;;;;;14.85;63.23;98031.28;5092224;28;20020;-48
2024/01/03 08:07:09;;;;;;;3.33;1.63;;;;;;;14.83;65.93;98039.47;5090847;28;20028;-47
2024/01/03 08:09:37;;;;;;;5.20;4.20;;;;;;;14.77;64.25;98037.81;5090035;28;20482;-47
2024/01/03 08:12:08;;;;;;;3.60;1.63;;;;;;;14.66;63.05;98038.69;5090758;28;20031;-47
2024/01/03 08:14:35;;;;;;;6.35;3.03;;;;;;;14.57;63.77;98043.59;5092066;28;20032;-47
2024/01/03 08:17:01;;;;;;;4.60;1.45;;;;;;;14.49;62.62;98038.69;5090670;28;20028;-47
2024/01/03 08:19:27;;;;;;;3.38;2.35;;;;;;;14.35;64.55;98030.28;5092019;28;20502;-47
2024/01/03 08:21:54;;;;;;;4.63;2.72;;;;;;;14.36;66.08;98024.75;5091971;28;20065;-47
2024/01/03 08:24:20;;;;;;;4.03;1.88;;;;;;;14.52;63.82;98020.50;5091933;28;20031;-48
2024/01/03 08:26:47;;;;;;;4.15;2.22;;;;;;;14.52;64.64;98025.00;5090639;28;20190;-47
2024/01/03 08:29:16;;;;;;;3.10;1.02;;;;;;;14.47;63.60;98032.84;5091774;28;20028;-47
2024/01/03 08:31:41;;;;;;;2.80;1.25;;;;;;;14.40;65.32;98027.72;5090336;28;20526;-47
2024/01/03 08:34:07;;;;;;;3.28;1.83;;;;;;;14.38;67.13;98021.88;5091784;28;20534;-47
2024/01/03 08:36:43;;;;;;;3.17;1.27;;;;;;;14.33;65.13;98030.53;5090549;28;20074;-47
2024/01/03 08:39:09;;;;;;;6.65;2.28;;;;;;;14.15;66.30;98034.19;5091770;28;20559;-47
2024/01/03 08:41:36;;;;;;;7.63;1.13;;;;;;;14.05;67.72;98034.03;5091761;28;20020;-47
2024/01/03 08:44:03;;;;;;;6.57;3.20;;;;;;;14.01;66.33;98037.41;5091770;28;20032;-47
2024/01/03 08:46:31;;;;;;;4.85;4.40;;;;;;;13.93;65.76;98039.38;5090727;28;20386;-47
2024/01/03 08:48:57;;;;;;;5.45;2.15;;;;;;;13.83;65.58;98028.66;5091648;28;20058;-47
2024/01/03 08:51:23;;;;;;;8.00;1.60;;;;;;;13.76;66.87;98051.72;5090363;28;20025;-47
2024/01/03 08:53:50;;;;;;;2.50;1.60;;;;;;;13.62;66.94;98035.38;5091615;28;20064;-49
2024/01/03 08:56:18;;;;;;;5.00;1.83;;;;;;;13.57;68.57;98051.91;5073833;28;20056;-49
2024/01/03 08:58:45;;;;;;;6.43;3.70;;;;;;;13.61;67.65;98052.25;5090295;28;20078;-49
2024/01/03 09:01:22;;;;;;;12.18;8.55;;;;;;;13.73;67.14;98044.28;5073417;28;20051;-49
2024/01/03 09:03:49;;;;;;;12.50;6.53;;;;;;;13.85;66.41;98038.97;5091604;28;20325;-49
2024/01/03 09:06:20;;;;;;;6.68;4.35;;;;;;;13.85;68.10;98047.69;5090195;28;20034;-49
2024/01/03 09:08:50;;;;;;;5.90;1.88;;;;;;;13.92;66.81;98050.97;5091456;28;20086;-49
2024/01/03 09:11:17;;;;;;;6.43;2.08;;;;;;;13.94;67.47;98046.25;5090324;28;20181;-49
2024/01/03 09:13:43;;;;;;;3.22;1.13;;;;;;;13.99;66.15;98059.53;5091515;28;20023;-49
2024/01/03 09:16:11;;;;;;;4.95;1.58;;;;;;;13.92;67.38;98061.53;5091489;28;20078;-49
2024/01/03 09:18:37;;;;;;;4.85;1.90;;;;;;;13.87;68.72;98052.72;5090145;28;20054;-49
2024/01/03 09:21:04;;;;;;;6.20;2.30;;;;;;;13.85;68.29;98062.72;5093746;28;20105;-49
2024/01/03 09:23:30;;;;;;;4.90;1.67;;;;;;;13.87;68.68;98045.59;5093985;28;20460;-49
2024/01/03 09:25:56;;;;;;;2.80;1.48;;;;;;;13.92;68.76;98058.06;5095224;28;20445;-47
2024/01/03 09:28:23;;;;;;;4.00;1.75;;;;;;;14.25;70.04;98059.97;5094986;28;20027;-49
2024/01/03 09:30:49;;;;;;;4.40;1.60;;;;;;;14.68;65.68;98066.44;5094863;28;20177;-49
2024/01/03 09:33:15;;;;;;;3.90;1.60;;;;;;;14.55;65.75;98074.69;5095053;28;20495;-49
2024/01/03 09:35:40;;;;;;;4.18;1.63;;;;;;;14.56;66.18;98084.22;5094985;28;20093;-49
2024/01/03 09:38:06;;;;;;;4.22;1.50;;;;;;;14.59;67.85;98081.13;5094869;28;20024;-49
2024/01/03 09:40:33;;;;;;;5.68;1.67;;;;;;;14.81;68.23;98089.09;5094933;28;20027;-49
2024/01/03 09:43:03;;;;;;;6.43;2.03;;;;;;;14.98;67.62;98068.72;5094802;28;20034;-49
2024/01/03 09:45:30;;;;;;;3.70;1.52;;;;;;;14.96;65.88;98099.88;5094799;28;20028;-49
2024/01/03 09:47:57;;;;;;;4.35;1.95;;;;;;;14.85;68.06;98092.84;5093376;28;20041;-50
2024/01/03 09:50:23;;;;;;;3.20;2.55;;;;;;;14.87;69.00;98101.34;5093394;28;20035;-49
2024/01/03 09:52:49;;;;;;;6.28;2.85;;;;;;;15.27;68.10;98100.28;5093420;28;20111;-49
2024/01/03 09:55:16;;;;;;;55.25;50.20;;;;;;;15.45;67.06;98091.25;5094580;28;20032;-49
2024/01/03 09:57:43;;;;;;;38.30;34.70;;;;;;;15.44;67.97;98094.16;5110374;28;20024;-47
2024/01/03 10:00:09;;;;;;;7.32;5.55;;;;;;;16.32;64.63;98107.25;5093205;28;20036;-45
2024/01/03 10:02:38;;;;;;;8.65;4.53;;;;;;;17.16;62.34;98092.47;5094498;28;20154;-46
2024/01/03 10:05:05;;;;;;;7.60;4.13;;;;;;;17.85;60.09;98090.63;5094353;28;20035;-47
2024/01/03 10:07:34;;;;;;;11.77;5.30;;;;;;;18.45;58.88;98097.09;5093176;28;20162;-48
2024/01/03 10:10:00;;;;;;;4.35;2.83;;;;;;;18.98;56.74;98093.34;5094290;28;20051;-47
2024/01/03 10:12:33;;;;;;;9.88;3.42;;;;;;;19.44;54.99;98071.91;5093023;28;20398;-47
2024/01/03 10:15:15;;;;;;;12.77;5.93;;;;;;;19.61;53.27;98072.34;5094328;28;20036;-47
2024/01/03 10:17:48;;;;;;;5.68;2.80;;;;;;;19.63;53.53;98088.06;5094238;28;20043;-47
2024/01/03 10:20:24;;;;;;;5.15;2.63;;;;;;;19.63;48.88;98077.41;5092870;28;20028;-47
2024/01/03 10:23:11;;;;;;;5.72;2.45;;;;;;;19.52;51.67;98068.69;5092814;28;20207;-47
2024/01/03 10:25:39;;;;;;;6.53;2.28;;;;;;;19.69;54.96;98070.97;5093924;28;20028;-47
2024/01/03 10:28:06;;;;;;;4.45;1.70;;;;;;;20.05;52.89;98068.13;5076219;28;20031;-47
2024/01/03 10:30:33;;;;;;;7.13;1.90;;;;;;;20.34;51.90;98065.50;5093746;28;20052;-47
2024/01/03 10:33:09;;;;;;;5.38;2.83;;;;;;;20.53;50.79;98079.72;5093256;28;20047;-48
2024/01/03 10:35:36;;;;;;;6.03;2.58;;;;;;;20.69;53.13;98069.75;5093820;28;20028;-48
2024/01/03 10:38:04;;;;;;;2.60;1.67;;;;;;;20.82;52.01;98070.94;5092469;28;20024;-47
2024/01/03 10:40:32;;;;;;;3.83;1.77;;;;;;;21.06;50.74;98064.84;5092391;28;20422;-48
2024/01/03 10:42:58;;;;;;;4.97;2.22;;;;;;;21.00;49.42;98034.75;5093681;28;20024;-48
2024/01/03 10:45:25;;;;;;;7.63;2.50;;;;;;;20.83;51.58;98064.56;5093642;28;20035;-48
2024/01/03 10:47:52;;;;;;;8.27;2.10;;;;;;;20.48;49.90;98068.31;5092485;28;20409;-47
2024/01/03 10:50:19;;;;;;;3.40;1.85;;;;;;;19.95;50.92;98076.97;5093552;28;20024;-48
2024/01/03 10:52:46;;;;;;;5.88;1.67;;;;;;;19.72;54.93;98065.94;5092223;28;20024;-48
2024/01/03 10:55:20;;;;;;;4.32;1.73;;;;;;;19.60;52.74;98052.13;5093435;28;20024;-47
2024/01/03 10:58:12;;;;;;;5.47;2.53;;;;;;;19.95;50.77;98048.47;5093762;28;20444;-48
2024/01/03 11:00:53;;;;;;;7.50;3.05;;;;;;;20.62;55.80;98060.50;5081665;28;20305;-48
2024/01/03 11:03:28;;;;;;;4.07;2.22;;;;;;;21.50;51.35;98059.25;5093547;28;20035;-46
2024/01/03 11:06:02;;;;;;;7.05;3.42;;;;;;;21.77;47.69;98051.69;5092085;28;20055;-46
2024/01/03 11:08:39;;;;;;;3.97;1.85;;;;;;;22.30;46.97;98057.59;5093279;28;20031;-46
2024/01/03 11:11:05;;;;;;;5.90;2.97;;;;;;;22.32;47.49;98062.66;5091912;28;20528;-46
2024/01/03 11:13:33;;;;;;;5.32;1.65;;;;;;;22.30;45.68;98070.19;5093164;28;20016;-47
2024/01/03 11:16:00;;;;;;;5.60;2.00;;;;;;;21.92;44.17;98040.78;5093066;28;20052;-47
2024/01/03 11:18:43;;;;;;;4.20;1.85;;;;;;;21.79;46.05;98068.22;5093064;28;20066;-48
2024/01/03 11:21:26;;;;;;;4.18;1.23;;;;;;;21.81;42.88;98042.03;5092999;28;20020;-48
2024/01/03 11:23:53;;;;;;;2.80;1.10;;;;;;;21.77;43.49;98059.72;5092994;28;20031;-48
2024/01/03 11:26:19;;;;;;;1.77;1.08;;;;;;;21.71;42.61;98050.97;5092859;28;20027;-48
2024/01/03 11:28:51;;;;;;;4.47;1.73;;;;;;;21.71;42.68;98046.44;5092836;28;20032;-48
2024/01/03 11:31:54;;;;;;;3.50;1.60;;;;;;;21.41;41.57;98036.94;5092442;28;20414;-48
2024/01/03 11:34:38;;;;;;;5.18;1.98;;;;;;;21.11;40.03;98030.09;5092865;28;20043;-47